createdAt,value
2019-02-22T00:00:59.506Z,16.83
2019-02-22T00:03:28.356Z,16.23
2019-02-22T00:05:57.139Z,15.50
2019-02-22T00:08:26.004Z,14.43
2019-02-22T00:10:54.802Z,15.77
2019-02-22T00:13:23.652Z,14.23
2019-02-22T00:15:52.564Z,15.80
2019-02-22T00:18:21.364Z,15.17
2019-02-22T00:20:50.220Z,15.40
2019-02-22T00:23:19.034Z,15.10
2019-02-22T00:25:47.917Z,15.67
2019-02-22T00:28:16.676Z,15.43
2019-02-22T00:30:45.508Z,14.37
2019-02-22T00:33:14.217Z,12.53
2019-02-22T00:35:42.981Z,13.40
2019-02-22T00:38:11.877Z,14.03
2019-02-22T00:40:40.700Z,14.03
2019-02-22T00:43:09.501Z,12.50
2019-02-22T00:45:38.404Z,12.20
2019-02-22T00:48:07.169Z,12.20
2019-02-22T00:50:35.988Z,12.37
2019-02-22T00:53:04.841Z,13.23
2019-02-22T00:55:33.635Z,11.03
2019-02-22T00:58:02.404Z,11.90
2019-02-22T01:00:31.275Z,10.80
2019-02-22T01:03:00.034Z,11.33
2019-02-22T01:05:28.852Z,10.20
2019-02-22T01:07:57.660Z,10.00
2019-02-22T01:10:31.127Z,9.90
2019-02-22T01:12:56.925Z,8.77
2019-02-22T01:15:25.725Z,7.93
2019-02-22T01:17:54.564Z,8.10
2019-02-22T01:20:23.446Z,7.97
2019-02-22T01:22:52.228Z,8.83
2019-02-22T01:25:20.996Z,8.13
2019-02-22T01:27:49.844Z,7.13
2019-02-22T01:30:18.764Z,7.50
2019-02-22T01:32:47.591Z,6.90
2019-02-22T01:35:16.395Z,5.90
2019-02-22T01:37:45.213Z,5.60
2019-02-22T01:40:14.061Z,5.53
2019-02-22T01:42:42.892Z,6.07
2019-02-22T01:45:11.774Z,4.77
2019-02-22T01:47:40.612Z,4.60
2019-02-22T01:50:09.312Z,5.27
2019-02-22T01:52:38.108Z,5.30
2019-02-22T01:55:06.947Z,4.80
2019-02-22T01:57:35.789Z,4.30
2019-02-22T02:00:06.052Z,4.50
2019-02-22T02:02:34.876Z,4.70
2019-02-22T02:05:03.651Z,3.47
2019-02-22T02:07:32.452Z,3.63
2019-02-22T02:10:01.268Z,4.13
2019-02-22T02:12:30.103Z,3.70
2019-02-22T02:14:58.988Z,4.30
2019-02-22T02:17:27.829Z,3.97
2019-02-22T02:19:56.580Z,3.37
2019-02-22T02:22:25.460Z,2.97
2019-02-22T02:24:54.276Z,3.90
2019-02-22T02:27:23.054Z,3.47
2019-02-22T02:29:51.882Z,3.53
2019-02-22T02:32:20.628Z,2.93
2019-02-22T02:34:49.468Z,3.03
2019-02-22T02:37:18.275Z,3.00
2019-02-22T02:39:47.090Z,2.67
2019-02-22T02:42:15.964Z,2.63
2019-02-22T02:44:44.762Z,3.27
2019-02-22T02:47:13.580Z,2.10
2019-02-22T02:49:42.346Z,2.97
2019-02-22T02:52:11.270Z,2.70
2019-02-22T02:54:40.069Z,2.90
2019-02-22T02:57:08.763Z,2.33
2019-02-22T02:59:37.619Z,2.70
2019-02-22T03:02:08.010Z,2.47
2019-02-22T03:04:36.750Z,2.47
2019-02-22T03:07:07.195Z,2.87
2019-02-22T03:09:36.061Z,2.60
2019-02-22T03:12:04.807Z,2.70
2019-02-22T03:14:33.676Z,2.47
2019-02-22T03:17:02.524Z,1.70
2019-02-22T03:19:31.371Z,2.90
2019-02-22T03:22:00.187Z,2.30
2019-02-22T03:24:29.023Z,2.90
2019-02-22T03:26:57.861Z,3.00
2019-02-22T03:29:26.668Z,2.80
2019-02-22T03:31:55.491Z,2.63
2019-02-22T03:34:24.250Z,2.70
2019-02-22T03:36:53.125Z,2.60
2019-02-22T03:39:21.862Z,2.40
2019-02-22T03:41:50.612Z,2.73
2019-02-22T03:44:19.521Z,2.90
2019-02-22T03:46:48.340Z,4.17
2019-02-22T03:49:17.164Z,4.60
2019-02-22T03:51:46.034Z,4.33
2019-02-22T03:54:14.893Z,4.73
2019-02-22T03:56:43.720Z,5.80
2019-02-22T03:59:12.612Z,5.80
2019-02-22T04:01:41.347Z,6.03
2019-02-22T04:04:10.109Z,7.93
2019-02-22T04:06:39.188Z,8.00
2019-02-22T04:09:10.545Z,8.80
2019-02-22T04:11:45.576Z,9.13
2019-02-22T04:14:09.884Z,8.13
2019-02-22T04:16:38.636Z,8.40
2019-02-22T04:19:07.507Z,8.73
2019-02-22T04:21:36.391Z,9.73
2019-02-22T04:24:05.213Z,8.47
2019-02-22T04:26:33.972Z,9.73
2019-02-22T04:29:02.746Z,8.57
2019-02-22T04:31:31.553Z,9.33
2019-02-22T04:34:00.278Z,9.83
2019-02-22T04:36:29.164Z,8.57
2019-02-22T04:38:57.866Z,8.23
2019-02-22T04:41:26.691Z,7.40
2019-02-22T04:43:55.500Z,7.57
2019-02-22T04:46:24.334Z,7.97
2019-02-22T04:48:53.155Z,6.67
2019-02-22T04:51:22.052Z,6.13
2019-02-22T04:53:50.899Z,5.53
2019-02-22T04:56:19.652Z,5.60
2019-02-22T04:58:48.378Z,5.10
2019-02-22T05:01:17.220Z,5.63
2019-02-22T05:03:45.948Z,5.73
2019-02-22T05:06:14.796Z,5.70
2019-02-22T05:08:43.580Z,6.27
2019-02-22T05:11:12.404Z,12.33
2019-02-22T05:13:41.284Z,14.27
2019-02-22T05:16:10.111Z,14.77
2019-02-22T05:18:38.947Z,16.10
2019-02-22T05:21:07.839Z,15.27
2019-02-22T05:23:36.732Z,14.57
2019-02-22T05:26:05.916Z,13.40
2019-02-22T05:28:34.890Z,13.47
2019-02-22T05:31:03.803Z,13.80
2019-02-22T05:33:32.661Z,11.70
2019-02-22T05:36:01.646Z,10.33
2019-02-22T05:38:30.909Z,10.77
2019-02-22T05:41:00.559Z,5.87
2019-02-22T05:43:29.367Z,3.70
2019-02-22T05:45:58.380Z,3.00
2019-02-22T05:48:27.228Z,2.20
2019-02-22T05:50:56.041Z,2.30
2019-02-22T05:53:24.811Z,2.33
2019-02-22T05:55:53.612Z,2.93
2019-02-22T05:58:31.652Z,2.77
2019-02-22T06:01:00.460Z,2.90
2019-02-22T06:03:29.324Z,3.17
2019-02-22T06:05:58.199Z,3.53
2019-02-22T06:08:27.093Z,3.67
2019-02-22T06:10:55.938Z,2.70
2019-02-22T06:13:25.156Z,4.20
2019-02-22T06:15:53.948Z,3.37
2019-02-22T06:18:23.235Z,4.23
2019-02-22T06:20:52.130Z,4.63
2019-02-22T06:23:20.949Z,4.73
2019-02-22T06:25:49.962Z,5.23
2019-02-22T06:28:18.868Z,4.70
2019-02-22T06:30:48.097Z,4.67
2019-02-22T06:33:16.876Z,4.07
2019-02-22T06:35:45.775Z,4.10
2019-02-22T06:38:14.532Z,4.00
2019-02-22T06:40:43.533Z,3.77
2019-02-22T06:43:12.420Z,3.80
2019-02-22T06:45:41.236Z,3.03
2019-02-22T06:48:10.072Z,3.07
2019-02-22T06:50:38.955Z,4.77
2019-02-22T06:53:07.772Z,3.30
2019-02-22T06:55:36.606Z,5.67
2019-02-22T06:58:05.450Z,4.47
2019-02-22T07:00:34.196Z,4.83
2019-02-22T07:03:03.115Z,5.10
2019-02-22T07:05:31.988Z,4.60
2019-02-22T07:08:00.709Z,3.67
2019-02-22T07:10:31.092Z,3.90
2019-02-22T07:13:01.548Z,3.70
2019-02-22T07:15:30.373Z,3.87
2019-02-22T07:17:59.090Z,2.83
2019-02-22T07:20:27.892Z,2.07
2019-02-22T07:22:56.716Z,3.23
2019-02-22T07:25:25.564Z,2.87
2019-02-22T07:27:54.450Z,3.20
2019-02-22T07:30:23.269Z,3.43
2019-02-22T07:32:52.171Z,2.83
2019-02-22T07:35:21.692Z,3.40
2019-02-22T07:37:50.556Z,3.03
2019-02-22T07:40:20.090Z,2.93
2019-02-22T07:42:49.068Z,3.50
2019-02-22T07:45:17.900Z,2.67
2019-02-22T07:47:47.107Z,3.07
2019-02-22T07:50:16.033Z,3.00
2019-02-22T07:52:45.340Z,3.00
2019-02-22T07:55:14.195Z,3.80
2019-02-22T07:57:43.069Z,2.87
2019-02-22T08:00:14.119Z,3.30
2019-02-22T08:02:42.926Z,3.33
2019-02-22T08:05:11.840Z,3.33
2019-02-22T08:07:40.587Z,4.10
2019-02-22T08:10:09.420Z,2.93
2019-02-22T08:12:38.309Z,3.60
2019-02-22T08:15:13.340Z,3.93
2019-02-22T08:17:42.669Z,3.20
2019-02-22T08:20:13.635Z,2.83
2019-02-22T08:22:43.031Z,3.00
2019-02-22T08:25:12.003Z,2.97
2019-02-22T08:27:52.702Z,3.10
2019-02-22T08:30:11.869Z,2.97
2019-02-22T08:32:40.684Z,2.90
2019-02-22T08:35:09.546Z,2.70
2019-02-22T08:37:38.316Z,2.37
2019-02-22T08:40:09.869Z,1.80
2019-02-22T08:42:38.713Z,1.97
2019-02-22T08:45:09.790Z,2.73
2019-02-22T08:47:38.822Z,3.20
2019-02-22T08:50:08.556Z,1.47
2019-02-22T08:52:37.367Z,2.50
2019-02-22T08:55:06.677Z,2.80
2019-02-22T08:57:35.484Z,2.13
2019-02-22T09:00:05.473Z,2.30
2019-02-22T09:02:34.190Z,2.40
2019-02-22T09:05:04.506Z,2.37
2019-02-22T09:07:33.268Z,2.63
2019-02-22T09:10:02.101Z,2.63
2019-02-22T09:12:30.988Z,2.20
2019-02-22T09:14:59.810Z,2.27
2019-02-22T09:17:28.635Z,2.53
2019-02-22T09:19:57.568Z,2.60
2019-02-22T09:22:26.364Z,2.20
2019-02-22T09:24:55.058Z,2.20
2019-02-22T09:27:23.965Z,1.87
2019-02-22T09:29:58.831Z,1.97
2019-02-22T09:32:23.172Z,1.70
2019-02-22T09:34:51.967Z,2.10
2019-02-22T09:37:20.731Z,2.87
2019-02-22T09:39:49.578Z,2.37
2019-02-22T09:42:18.426Z,2.23
2019-02-22T09:44:47.220Z,1.70
2019-02-22T09:47:16.060Z,2.00
2019-02-22T09:49:44.860Z,2.20
2019-02-22T09:52:13.835Z,1.80
2019-02-22T09:54:42.685Z,1.70
2019-02-22T09:57:11.772Z,2.00
2019-02-22T09:59:40.588Z,1.97
2019-02-22T10:02:09.426Z,2.00
2019-02-22T10:04:38.301Z,2.20
2019-02-22T10:07:07.188Z,1.80
2019-02-22T10:09:36.006Z,1.97
2019-02-22T10:12:04.874Z,1.80
2019-02-22T10:14:33.724Z,2.00
2019-02-22T10:17:02.486Z,2.33
2019-02-22T10:19:31.396Z,2.20
2019-02-22T10:22:00.109Z,1.70
2019-02-22T10:24:28.955Z,1.80
2019-02-22T10:26:57.771Z,2.77
2019-02-22T10:29:26.534Z,2.33
2019-02-22T10:31:55.274Z,2.07
2019-02-22T10:34:24.150Z,2.00
2019-02-22T10:36:52.956Z,2.20
2019-02-22T10:39:21.790Z,2.90
2019-02-22T10:41:50.626Z,2.23
2019-02-22T10:44:19.461Z,2.33
2019-02-22T10:46:48.220Z,1.93
2019-02-22T10:49:17.102Z,2.30
2019-02-22T10:51:45.898Z,1.63
2019-02-22T10:54:14.738Z,1.70
2019-02-22T10:56:43.637Z,2.20
2019-02-22T10:59:12.468Z,1.97
2019-02-22T11:01:41.220Z,2.23
2019-02-22T11:04:10.099Z,1.70
2019-02-22T11:06:38.931Z,2.30
2019-02-22T11:09:07.835Z,2.13
2019-02-22T11:11:36.917Z,2.80
2019-02-22T11:14:05.765Z,2.00
2019-02-22T11:16:34.571Z,1.90
2019-02-22T11:19:03.532Z,2.70
2019-02-22T11:21:32.299Z,1.87
2019-02-22T11:24:01.058Z,2.43
2019-02-22T11:26:29.956Z,1.97
2019-02-22T11:28:58.788Z,1.60
2019-02-22T11:31:27.572Z,2.00
2019-02-22T11:33:56.362Z,1.60
2019-02-22T11:36:25.212Z,2.13
2019-02-22T11:38:54.035Z,2.17
2019-02-22T11:41:22.854Z,2.37
2019-02-22T11:43:51.618Z,1.90
2019-02-22T11:46:20.436Z,1.70
2019-02-22T11:48:49.321Z,1.80
2019-02-22T11:51:18.061Z,1.97
2019-02-22T11:53:47.132Z,1.90
2019-02-22T11:56:16.091Z,2.10
2019-02-22T11:58:44.859Z,2.00
2019-02-22T12:01:14.068Z,1.97
2019-02-22T12:03:42.916Z,1.63
2019-02-22T12:06:11.692Z,1.83
2019-02-22T12:08:40.516Z,1.63
2019-02-22T12:11:09.424Z,2.43
2019-02-22T12:13:38.205Z,2.00
2019-02-22T12:16:07.042Z,2.00
2019-02-22T12:18:36.607Z,1.70
2019-02-22T12:21:05.579Z,2.00
2019-02-22T12:23:34.420Z,1.67
2019-02-22T12:26:03.308Z,2.30
2019-02-22T12:28:32.156Z,2.23
2019-02-22T12:31:00.932Z,2.20
2019-02-22T12:33:29.776Z,2.33
2019-02-22T12:35:58.612Z,1.87
2019-02-22T12:38:28.277Z,2.13
2019-02-22T12:40:57.267Z,2.37
2019-02-22T12:43:26.092Z,1.63
2019-02-22T12:45:54.935Z,2.20
2019-02-22T12:48:23.739Z,2.10
2019-02-22T12:50:52.578Z,2.13
2019-02-22T12:53:21.357Z,1.50
2019-02-22T12:55:50.260Z,2.03
2019-02-22T12:58:19.038Z,2.17
2019-02-22T13:00:47.772Z,2.70
2019-02-22T13:03:16.668Z,2.90
2019-02-22T13:05:45.492Z,1.80
2019-02-22T13:08:14.341Z,2.57
2019-02-22T13:10:43.218Z,2.60
2019-02-22T13:13:12.028Z,1.87
2019-02-22T13:15:40.876Z,2.13
2019-02-22T13:18:09.777Z,1.97
2019-02-22T13:20:38.595Z,2.10
2019-02-22T13:23:07.439Z,2.47
2019-02-22T13:25:36.320Z,2.70
2019-02-22T13:28:05.067Z,2.90
2019-02-22T13:30:33.834Z,2.70
2019-02-22T13:33:02.724Z,2.80
2019-02-22T13:35:31.571Z,2.47
2019-02-22T13:38:00.308Z,2.30
2019-02-22T13:40:29.147Z,2.13
2019-02-22T13:42:57.908Z,2.70
2019-02-22T13:45:27.327Z,2.10
2019-02-22T13:47:56.333Z,2.00
2019-02-22T13:50:25.405Z,2.30
2019-02-22T13:52:54.132Z,1.53
2019-02-22T13:55:22.997Z,2.23
2019-02-22T13:57:51.740Z,2.00
2019-02-22T14:00:21.138Z,1.97
2019-02-22T14:02:50.009Z,3.10
2019-02-22T14:05:18.783Z,3.10
2019-02-22T14:07:54.684Z,2.43
2019-02-22T14:10:24.317Z,2.07
2019-02-22T14:12:53.055Z,2.40
2019-02-22T14:15:22.091Z,2.17
2019-02-22T14:17:50.852Z,2.60
2019-02-22T14:20:19.642Z,2.37
2019-02-22T14:22:50.053Z,2.23
2019-02-22T14:25:18.886Z,2.40
2019-02-22T14:27:47.645Z,3.07
2019-02-22T14:30:18.299Z,2.43
2019-02-22T14:32:47.196Z,2.43
2019-02-22T14:35:16.077Z,2.50
2019-02-22T14:37:44.981Z,1.87
2019-02-22T14:40:14.506Z,2.30
2019-02-22T14:42:43.348Z,2.63
2019-02-22T14:45:12.639Z,2.43
2019-02-22T14:47:41.500Z,2.03
2019-02-22T14:50:13.133Z,2.50
2019-02-22T14:52:42.122Z,2.20
2019-02-22T14:55:10.988Z,2.60
2019-02-22T14:57:39.821Z,2.87
2019-02-22T15:00:20.284Z,2.80
2019-02-22T15:02:49.091Z,2.33
2019-02-22T15:05:17.946Z,2.70
2019-02-22T15:07:46.838Z,2.53
2019-02-22T15:10:18.155Z,2.60
2019-02-22T15:12:46.131Z,2.80
2019-02-22T15:15:19.676Z,2.67
2019-02-22T15:17:50.076Z,2.60
2019-02-22T15:20:18.829Z,2.60
2019-02-22T15:22:47.695Z,2.37
2019-02-22T15:25:17.470Z,2.07
2019-02-22T15:27:46.284Z,2.37
2019-02-22T15:30:16.612Z,2.30
2019-02-22T15:32:45.611Z,2.90
2019-02-22T15:35:16.908Z,2.87
2019-02-22T15:37:45.812Z,2.50
2019-02-22T15:40:15.156Z,2.13
2019-02-22T15:42:43.905Z,2.63
2019-02-22T15:45:15.085Z,2.47
2019-02-22T15:47:43.916Z,3.03
2019-02-22T15:50:16.732Z,2.47
2019-02-22T15:52:46.507Z,2.33
2019-02-22T15:55:15.335Z,3.17
2019-02-22T15:57:44.101Z,3.07
2019-02-22T16:00:15.916Z,2.20
2019-02-22T16:02:44.667Z,2.97
2019-02-22T16:05:17.910Z,2.50
2019-02-22T16:08:07.713Z,3.17
2019-02-22T16:10:36.460Z,4.63
2019-02-22T16:13:05.284Z,5.17
2019-02-22T16:15:36.252Z,3.67
2019-02-22T16:18:04.708Z,3.23
2019-02-22T16:20:33.506Z,4.07
2019-02-22T16:23:02.397Z,4.13
2019-02-22T16:25:31.244Z,5.17
2019-02-22T16:28:00.004Z,5.07
2019-02-22T16:30:30.419Z,5.10
2019-02-22T16:32:59.245Z,5.27
2019-02-22T16:35:28.330Z,5.37
2019-02-22T16:37:57.205Z,4.60
2019-02-22T16:40:25.963Z,3.90
2019-02-22T16:42:54.983Z,4.60
2019-02-22T16:45:23.877Z,3.40
2019-02-22T16:47:52.724Z,3.17
2019-02-22T16:50:21.490Z,2.50
2019-02-22T16:52:50.317Z,2.50
2019-02-22T16:55:19.077Z,2.00
2019-02-22T16:57:47.926Z,2.40
2019-02-22T17:00:17.613Z,2.40
2019-02-22T17:02:46.524Z,2.27
2019-02-22T17:05:18.110Z,2.00
2019-02-22T17:07:47.080Z,2.60
2019-02-22T17:10:15.908Z,2.50
2019-02-22T17:12:44.724Z,2.37
2019-02-22T17:15:14.629Z,2.20
2019-02-22T17:17:43.453Z,2.27
2019-02-22T17:20:13.746Z,1.87
2019-02-22T17:22:42.604Z,2.20
2019-02-22T17:25:21.720Z,2.47
2019-02-22T17:27:50.605Z,1.83
2019-02-22T17:30:20.946Z,2.30
2019-02-22T17:32:49.747Z,2.03
2019-02-22T17:35:18.672Z,4.80
2019-02-22T17:37:47.520Z,5.07
2019-02-22T17:40:24.614Z,4.23
2019-02-22T17:42:53.454Z,3.23
2019-02-22T17:45:22.278Z,3.63
2019-02-22T17:47:51.175Z,2.77
2019-02-22T17:50:19.965Z,2.90
2019-02-22T17:52:48.861Z,2.30
2019-02-22T17:55:17.770Z,2.50
2019-02-22T17:57:46.598Z,2.27
2019-02-22T18:00:18.126Z,2.47
2019-02-22T18:02:47.195Z,1.87
2019-02-22T18:05:16.029Z,2.10
2019-02-22T18:07:44.870Z,2.63
2019-02-22T18:10:13.852Z,2.80
2019-02-22T18:12:42.693Z,2.50
2019-02-22T18:15:13.421Z,3.47
2019-02-22T18:17:47.230Z,2.37
2019-02-22T18:20:16.044Z,2.90
2019-02-22T18:22:44.866Z,2.20
2019-02-22T18:25:14.054Z,2.33
2019-02-22T18:27:42.884Z,2.60
2019-02-22T18:30:17.700Z,2.87
2019-02-22T18:32:46.635Z,2.30
2019-02-22T18:35:15.572Z,2.20
2019-02-22T18:37:44.407Z,2.93
2019-02-22T18:40:18.398Z,1.97
2019-02-22T18:42:47.266Z,2.37
2019-02-22T18:45:16.052Z,2.00
2019-02-22T18:47:44.918Z,2.10
2019-02-22T18:50:13.772Z,2.27
2019-02-22T18:52:42.612Z,2.30
2019-02-22T18:55:11.818Z,2.10
2019-02-22T18:57:40.685Z,1.80
2019-02-22T19:00:40.349Z,2.37
2019-02-22T19:03:09.236Z,2.60
2019-02-22T19:05:38.131Z,2.13
2019-02-22T19:08:07.028Z,3.17
2019-02-22T19:10:35.885Z,2.90
2019-02-22T19:13:04.701Z,2.73
2019-02-22T19:15:33.491Z,2.07
2019-02-22T19:18:02.252Z,3.17
2019-02-22T19:20:31.030Z,2.93
2019-02-22T19:22:59.860Z,2.93
2019-02-22T19:25:28.676Z,2.60
2019-02-22T19:27:57.524Z,2.70
2019-02-22T19:30:26.628Z,2.60
2019-02-22T19:32:55.572Z,2.63
2019-02-22T19:35:24.389Z,2.40
2019-02-22T19:37:53.294Z,2.60
2019-02-22T19:40:25.052Z,2.60
2019-02-22T19:42:53.894Z,2.47
2019-02-22T19:45:22.786Z,2.77
2019-02-22T19:47:52.204Z,2.53
2019-02-22T19:50:21.293Z,2.53
2019-02-22T19:52:50.469Z,3.47
2019-02-22T19:55:20.019Z,2.73
2019-02-22T19:57:48.877Z,2.13
2019-02-22T20:00:37.068Z,2.67
2019-02-22T20:03:05.989Z,2.87
2019-02-22T20:05:34.804Z,2.33
2019-02-22T20:08:03.921Z,3.07
2019-02-22T20:10:32.846Z,2.87
2019-02-22T20:13:02.717Z,2.43
2019-02-22T20:15:31.798Z,2.70
2019-02-22T20:18:01.692Z,2.73
2019-02-22T20:20:31.012Z,3.13
2019-02-22T20:23:00.020Z,2.50
2019-02-22T20:25:28.870Z,2.33
2019-02-22T20:27:57.619Z,3.03
2019-02-22T20:30:26.500Z,4.17
2019-02-22T20:32:55.439Z,4.70
2019-02-22T20:35:28.974Z,4.33
2019-02-22T20:37:57.859Z,3.70
2019-02-22T20:40:26.685Z,3.37
2019-02-22T20:42:55.532Z,2.97
2019-02-22T20:45:24.340Z,2.90
2019-02-22T20:48:04.261Z,3.00
2019-02-22T20:50:23.620Z,2.73
2019-02-22T20:52:52.548Z,3.20
2019-02-22T20:55:21.431Z,2.90
2019-02-22T20:57:50.276Z,3.00
2019-02-22T21:00:25.988Z,2.90
2019-02-22T21:02:54.837Z,3.37
2019-02-22T21:05:23.588Z,3.77
2019-02-22T21:07:52.476Z,3.13
2019-02-22T21:10:22.332Z,3.90
2019-02-22T21:12:51.173Z,2.97
2019-02-22T21:15:20.060Z,3.33
2019-02-22T21:17:48.874Z,3.20
2019-02-22T21:20:19.036Z,2.73
2019-02-22T21:22:47.913Z,2.53
2019-02-22T21:25:16.717Z,2.93
2019-02-22T21:27:45.563Z,2.53
2019-02-22T21:30:19.628Z,2.67
2019-02-22T21:32:48.495Z,2.80
2019-02-22T21:35:17.355Z,3.97
2019-02-22T21:37:46.269Z,5.17
2019-02-22T21:40:15.152Z,7.23
2019-02-22T21:42:43.987Z,5.87
2019-02-22T21:45:13.996Z,6.00
2019-02-22T21:47:53.633Z,6.50
2019-02-22T21:50:14.104Z,7.73
2019-02-22T21:52:42.995Z,7.97
2019-02-22T21:55:13.695Z,6.73
2019-02-22T21:57:42.564Z,6.63
2019-02-22T22:00:26.229Z,6.37
2019-02-22T22:02:55.045Z,6.10
2019-02-22T22:05:23.866Z,3.27
2019-02-22T22:07:52.776Z,3.60
2019-02-22T22:10:21.663Z,3.97
2019-02-22T22:12:50.518Z,3.90
2019-02-22T22:15:19.410Z,9.00
2019-02-22T22:17:48.252Z,7.80
2019-02-22T22:20:17.083Z,7.67
2019-02-22T22:22:46.009Z,6.13
2019-02-22T22:25:16.114Z,8.00
2019-02-22T22:27:44.967Z,8.33
2019-02-22T22:30:17.100Z,7.70
2019-02-22T22:32:45.925Z,4.97
2019-02-22T22:35:16.067Z,5.37
2019-02-22T22:37:45.076Z,6.00
2019-02-22T22:40:13.823Z,6.10
2019-02-22T22:42:42.606Z,6.37
2019-02-22T22:45:13.767Z,5.60
2019-02-22T22:47:42.589Z,3.80
2019-02-22T22:50:13.901Z,3.50
2019-02-22T22:52:42.692Z,3.57
2019-02-22T22:55:11.741Z,4.03
2019-02-22T22:57:40.563Z,3.03
2019-02-22T23:00:30.958Z,3.73
2019-02-22T23:02:59.902Z,3.93
2019-02-22T23:05:28.717Z,3.30
2019-02-22T23:07:57.636Z,3.77
2019-02-22T23:10:26.420Z,3.30
2019-02-22T23:12:55.157Z,3.87
2019-02-22T23:15:23.970Z,3.70
2019-02-22T23:17:52.813Z,3.97
2019-02-22T23:20:21.549Z,4.33
2019-02-22T23:22:50.428Z,3.27
2019-02-22T23:25:19.180Z,4.60
2019-02-22T23:27:48.086Z,5.27
2019-02-22T23:30:16.940Z,5.20
2019-02-22T23:32:45.700Z,4.00
2019-02-22T23:35:14.515Z,3.53
2019-02-22T23:37:43.358Z,3.23
2019-02-22T23:40:12.204Z,3.90
2019-02-22T23:42:40.964Z,3.57
2019-02-22T23:45:09.804Z,3.73
2019-02-22T23:47:38.606Z,3.67
2019-02-22T23:50:08.276Z,3.17
2019-02-22T23:52:38.107Z,4.03
2019-02-22T23:55:06.931Z,3.30
2019-02-22T23:57:35.726Z,2.70
